• Join FlightAware (Why Join?)
  • Login
  • US Flag 
04:18AM EDT


 

Airport Tracker/Info


-or-


 

Live Flight TrackerFlight Track Log ✈ SWA59 ✈ 30-Apr-2013 ✈ KPHL - KSTL

Flight Track Log - Related Links

Times and Time Zones

All times are in EDT time to prevent confusion due to time zone crossing. See the SWA59 flight status page for this flight to view local times or setup timezone preferences in your user account.

Time Position Orientation Groundspeed Altitude Reporting Facility
EDT Latitude Longitude Course Direction KTS MPH feet Rate Location/Type
05:13PM 39.8833 -75.2333 72° East 136 157 900  Level Philadelphia TRACON
05:14PM 39.9000 -75.1667 72° East 196 226 3,000 2,580 Climbing Philadelphia TRACON
05:15PM 39.9333 -75.1333 37° Northeast 215 247 5,900 3,000 Climbing Philadelphia TRACON
05:16PM 39.9500 -75.2333 282° West 287 330 9,300 1,920 Climbing Philadelphia TRACON
05:17PM 39.9333 -75.3333 258° West 317 365 10,000 360 Climbing Philadelphia TRACON
05:18PM 39.9342 -75.4244 271° West 334 384 10,000 360 Level New York Center
05:19PM 39.9253 -75.5458 265° West 334 384 10,700 900 Climbing New York Center
05:20PM 39.9186 -75.6564 266° West 334 384 11,900 1,800 Climbing New York Center
05:21PM 39.9147 -75.7942 268° West 342 394 14,400 2,940 Climbing New York Center
05:22PM 39.9136 -75.9214 269° West 348 400 17,900 3,060 Climbing New York Center
05:23PM 39.9117 -76.0592 269° West 362 417 20,400 2,520 Climbing New York Center
05:24PM 39.9136 -76.2000 271° West 381 438 22,900 1,800 Climbing New York Center
05:25PM 39.9119 -76.3217 269° West 387 445 24,100 1,620 Climbing New York Center
05:26PM 39.9175 -76.4683 273° West 397 457 26,200 1,980 Climbing New York Center
05:27PM 39.9244 -76.6233 273° West 414 476 28,100 1,800 Climbing New York Center
05:28PM 39.9311 -76.7808 273° West 428 493 29,900 1,800 Climbing New York Center
05:29PM 39.9375 -76.9386 273° West 435 501 31,800 1,860 Climbing New York Center
05:30PM 39.9439 -77.0961 273° West 447 514 33,600 1,800 Climbing New York Center
05:31PM 39.9478 -77.2564 272° West 442 509 35,400 1,560 Climbing New York Center
05:33PM 39.9197 -77.6000 264° West 445 512 38,600 1,440 Climbing Cleveland Center
05:34PM 39.9153 -77.7572 268° West 445 512 39,900 660 Climbing Cleveland Center
05:35PM 39.9128 -77.9089 269° West 439 505 40,000  Climbing Cleveland Center
05:36PM 39.9122 -78.0658 270° West 439 505 40,000  Level Cleveland Center
05:37PM 39.9092 -78.2203 269° West 439 505 40,000  Level Cleveland Center
05:38PM 39.9081 -78.3747 270° West 439 505 40,000  Level Cleveland Center
05:39PM 39.9172 -78.5258 275° West 434 499 40,000  Level Cleveland Center
05:40PM 39.9219 -78.6772 272° West 428 493 40,000  Level Cleveland Center
05:41PM 39.9306 -78.8233 274° West 417 480 40,000  Level Cleveland Center
05:42PM 39.9367 -78.9450 274° West 417 480 40,000  Level Cleveland Center
05:43PM 39.9492 -79.1072 276° West 422 486 40,000  Level Cleveland Center
05:44PM 39.9553 -79.2561 273° West 422 486 40,000  Level Cleveland Center
05:45PM 39.9631 -79.4022 274° West 422 486 40,000  Level Cleveland Center
05:46PM 39.9708 -79.5644 274° West 417 480 40,000  Level Cleveland Center
05:47PM 39.9764 -79.7133 273° West 417 480 40,000  Level Cleveland Center
05:48PM 39.9836 -79.8625 274° West 417 480 40,000  Level Cleveland Center
05:49PM 39.9886 -80.0086 273° West 417 480 40,000  Level Cleveland Center
05:50PM 39.9956 -80.1575 274° West 417 480 40,000  Level Cleveland Center
05:51PM 40.0000 -80.3039 272° West 417 480 40,000  Level Cleveland Center
05:52PM 40.0067 -80.4558 273° West 417 480 40,000  Level Cleveland Center
05:55PM 40.0164 -80.8133 272° West 413 475 40,000  Level Indianapolis Center
05:56PM 40.0147 -80.9642 269° West 413 475 40,000  Level Indianapolis Center
05:57PM 40.0119 -81.1167 269° West 414 476 40,000  Level Indianapolis Center
05:58PM 40.0103 -81.2661 269° West 410 472 40,000  Level Indianapolis Center
05:59PM 40.0072 -81.4169 269° West 411 473 40,000  Level Indianapolis Center
06:00PM 40.0036 -81.5944 269° West 414 476 40,000  Level Indianapolis Center
06:01PM 40.0006 -81.7483 269° West 418 481 40,000  Level Indianapolis Center
06:02PM 39.9969 -81.8975 268° West 413 475 40,000  Level Indianapolis Center
06:03PM 39.9950 -82.0492 269° West 415 478 40,000  Level Indianapolis Center
06:04PM 39.9897 -82.1997 267° West 414 476 40,000  Level Indianapolis Center
06:05PM 39.9867 -82.3525 269° West 417 480 40,000  Level Indianapolis Center
06:06PM 39.9819 -82.5039 268° West 416 479 40,000  Level Indianapolis Center
06:07PM 39.9778 -82.6792 268° West 412 474 40,000  Level Indianapolis Center
06:08PM 39.9728 -82.8303 268° West 415 478 40,000  Level Indianapolis Center
06:09PM 39.9678 -82.9819 268° West 417 480 40,000  Level Indianapolis Center
06:10PM 39.9642 -83.1328 268° West 414 476 40,000  Level Indianapolis Center
06:11PM 39.9614 -83.2842 269° West 417 480 40,000  Level Indianapolis Center
06:12PM 39.9567 -83.4350 268° West 420 483 40,000  Level Indianapolis Center
06:13PM 39.9483 -83.6106 267° West 423 487 40,000  Level Indianapolis Center
06:14PM 39.9431 -83.7625 267° West 421 484 40,000  Level Indianapolis Center
06:15PM 39.9367 -83.9142 267° West 420 483 40,000  Level Indianapolis Center
06:16PM 39.9306 -84.0686 267° West 423 487 40,000  Level Indianapolis Center
06:17PM 39.9239 -84.2231 267° West 424 488 40,000  Level Indianapolis Center
06:19PM 39.9161 -84.4044 267° West 427 491 40,000  Level Indianapolis Center
06:20PM 39.9092 -84.5594 267° West 427 491 40,000  Level Indianapolis Center
06:21PM 39.9025 -84.7153 267° West 428 493 40,000  Level Indianapolis Center
06:22PM 39.8944 -84.8711 266° West 428 493 40,000  Level Indianapolis Center
06:23PM 39.8872 -85.0386 267° West 431 496 40,000  Level Indianapolis Center
06:24PM 39.8792 -85.1956 266° West 433 498 40,000  Level Indianapolis Center
06:25PM 39.8708 -85.3522 266° West 431 496 40,000  Level Indianapolis Center
06:26PM 39.8628 -85.5072 266° West 429 494 40,000  Level Indianapolis Center
06:27PM 39.8547 -85.6619 266° West 426 490 40,000  Level Indianapolis Center
06:28PM 39.8458 -85.8417 266° West 425 489 40,000  Level Indianapolis Center
06:29PM 39.8364 -85.9956 265° West 425 489 40,000  Level Indianapolis Center
06:30PM 39.8286 -86.1489 266° West 426 490 40,000  Level Indianapolis Center
06:31PM 39.8169 -86.3181 265° West 427 491 40,000  Level Indianapolis Center
06:32PM 39.7892 -86.4742 257° West 436 502 40,000  Level Indianapolis Center
06:33PM 39.7522 -86.6219 252° West 432 497 40,000  Level Indianapolis Center
06:34PM 39.7158 -86.7719 253° West 435 501 40,000  Level Indianapolis Center
06:35PM 39.6786 -86.9214 252° West 434 499 40,000  Level Indianapolis Center
06:36PM 39.6411 -87.0711 252° West 434 499 40,000 -960 Level Indianapolis Center
06:37PM 39.6036 -87.2192 252° West 430 495 38,100 -2,520 Descending Indianapolis Center
06:38PM 39.5606 -87.3908 252° West 429 494 34,800 -2,040 Descending Indianapolis Center
06:39PM 39.5217 -87.5433 252° West 442 509 34,000 -420 Descending Indianapolis Center
06:40PM 39.4819 -87.6964 251° West 446 513 34,000 -1,440 Level Indianapolis Center
06:41PM 39.4428 -87.8506 252° West 448 516 31,100 -2,580 Descending Indianapolis Center
06:42PM 39.4119 -87.9678 251° West 446 513 29,200 -1,680 Descending Kansas City Center
06:43PM 39.3664 -88.1433 251° West 437 503 28,000 -600 Descending Kansas City Center
06:44PM 39.3306 -88.2900 253° West 433 498 28,000  Level Kansas City Center
06:45PM 39.2906 -88.4381 251° West 433 498 28,000  Level Kansas City Center
06:46PM 39.2486 -88.5850 250° West 434 499 28,000  Level Kansas City Center
06:47PM 39.2122 -88.7269 252° West 432 497 28,000  Level Kansas City Center
06:48PM 39.1719 -88.8722 250° West 432 497 28,000 -960 Level Kansas City Center
06:49PM 39.1239 -89.0486 251° West 433 498 26,100 -2,040 Descending Kansas City Center
06:50PM 39.0878 -89.1881 252° West 415 478 23,800 -2,340 Descending Kansas City Center
06:51PM 39.0547 -89.3333 254° West 397 457 21,300 -2,280 Descending Kansas City Center
06:52PM 39.0264 -89.4631 254° West 381 438 19,200 -2,160 Descending Kansas City Center
06:53PM 38.9956 -89.5972 254° West 367 422 16,900 -2,040 Descending Kansas City Center
06:55PM 38.9583 -89.7142 248° West 357 411 15,000 -1,800 Descending Kansas City Center
06:56PM 38.9203 -89.8336 248° West 341 392 13,300 -1,800 Descending Kansas City Center
06:57PM 38.8875 -89.9381 248° West 333 383 11,400 -1,500 Descending Kansas City Center
06:58PM 38.8553 -90.0417 248° West 318 366 10,200 -1,020 Descending Kansas City Center
06:59PM 38.8258 -90.1319 247° West 284 327 9,300 -1,080 Descending Kansas City Center
07:00PM 38.8017 -90.2194 251° West 269 310 8,000 -1,080 Descending Kansas City Center
07:01PM 38.8403 -90.3139 298° West 255 293 7,100 -720 Descending Kansas City Center
07:02PM 38.8644 -90.3683 300° West 188 216 6,600 -1,140 Descending Kansas City Center
07:03PM 38.8725 -90.4167 282° West 159 183 4,800 -1,680 Descending Kansas City Center
07:04PM 38.8392 -90.4422 211° Southwest 147 169 3,200 -1,380 Descending Kansas City Center
07:05PM 38.8036 -90.4411 179° South 137 158 2,000 -1,020 Descending Kansas City Center
07:06PM 38.7700 -90.4114 145° Southeast 130 150 1,100 -780 Descending Kansas City Center
07:07PM 38.7511 -90.3728 122° Southeast 127 146 500 -600 Descending Kansas City Center